Valmora, New Mexico
Current Conditions -  °F | °C
As of 3:27 PM on Sunday 23 Nov 2014 (Local Time) from KLVS Reporting Station
Overcast Overcast  
Wind Chill: 21°   Ceiling: 3500
Heat Index: 29°   Visibility: 10mi
Dew Point: 26°   Wind: 8mph
Humidity: 89%   Direction: 60°ENE
Pressure: 29.83"   Gusts: NA
Location:  35.82°N, 104.92°W
Report Text: KLVS 232227Z AUTO 06007KT 10SM FEW030 BKN035 OVC070 M02/M03 A2983 RMK AO2 T10171033
Loading
Personal Weather Stations






























Interactive Weather Map New forecast layout! Learn more

10-Day Weather Forecast

Advertisements
Track Severe Weather on mobile